Time;durP1;ratioP1;P1;durP2;ratioP2;P2;SDS_P1;SDS_P2;PMS_P1;PMS_P2;Temp;Humidity;BMP_temperature;BMP_pressure;BME280_temperature;BME280_humidity;BME280_pressure;Samples;Min_cycle;Max_cycle;Signal;HPM_P1;HPM_P2
2022/04/14 00:00:27;;;;;;;14.60;7.80;;;12.10;99.90;;;;;;5052066;28;20053;-70
2022/04/14 00:02:55;;;;;;;11.55;7.38;;;12.10;99.90;;;;;;5052172;28;20045;-70
2022/04/14 00:05:22;;;;;;;12.90;7.43;;;12.10;99.90;;;;;;5052462;28;20037;-70
2022/04/14 00:07:48;;;;;;;12.70;7.88;;;12.10;99.90;;;;;;5052350;28;20159;-70
2022/04/14 00:10:14;;;;;;;14.55;7.97;;;12.00;99.90;;;;;;5052042;28;20040;-70
2022/04/14 00:12:41;;;;;;;12.25;8.13;;;12.10;99.90;;;;;;5052011;28;20043;-70
2022/04/14 00:15:08;;;;;;;10.23;7.65;;;12.10;99.90;;;;;;5052156;28;20041;-70
2022/04/14 00:17:34;;;;;;;15.13;8.13;;;12.00;99.90;;;;;;5052238;28;20047;-70
2022/04/14 00:20:08;;;;;;;11.15;6.85;;;12.00;99.90;;;;;;5050535;28;20044;-70
2022/04/14 00:22:34;;;;;;;14.65;7.95;;;12.00;99.90;;;;;;5052062;28;20052;-70
2022/04/14 00:25:00;;;;;;;16.10;8.38;;;12.00;99.90;;;;;;5050741;28;20040;-70
2022/04/14 00:27:25;;;;;;;14.52;7.90;;;12.00;99.90;;;;;;5051965;28;20048;-70
2022/04/14 00:29:51;;;;;;;14.07;8.18;;;12.00;99.90;;;;;;5050533;28;20387;-71
2022/04/14 00:32:17;;;;;;;15.30;8.43;;;12.00;99.90;;;;;;5051572;28;20119;-70
2022/04/14 00:34:42;;;;;;;11.02;7.18;;;12.00;99.90;;;;;;5051819;28;20036;-70
2022/04/14 00:37:11;;;;;;;15.00;8.02;;;12.00;99.90;;;;;;5051674;28;20126;-70
2022/04/14 00:39:37;;;;;;;14.40;8.10;;;12.00;99.90;;;;;;5049821;28;20037;-70
2022/04/14 00:42:10;;;;;;;14.77;8.25;;;12.00;99.90;;;;;;5051507;28;20068;-70
2022/04/14 00:44:35;;;;;;;13.10;7.55;;;12.00;99.90;;;;;;5050437;28;20044;-70
2022/04/14 00:47:01;;;;;;;16.33;8.55;;;11.90;99.90;;;;;;5051876;28;20406;-71
2022/04/14 00:49:27;;;;;;;11.57;8.02;;;11.80;99.90;;;;;;5051558;28;20041;-70
2022/04/14 00:51:52;;;;;;;15.32;8.82;;;11.80;99.90;;;;;;5051396;28;20040;-70
2022/04/14 00:54:18;;;;;;;16.77;9.10;;;11.80;99.90;;;;;;5051649;28;20518;-70
2022/04/14 00:56:44;;;;;;;16.40;9.07;;;11.80;99.90;;;;;;5051701;28;20127;-70
2022/04/14 00:59:09;;;;;;;14.80;8.98;;;11.70;99.90;;;;;;5051525;28;20124;-70
2022/04/14 01:01:35;;;;;;;18.15;9.05;;;11.70;99.90;;;;;;5051482;28;20070;-70
2022/04/14 01:04:02;;;;;;;12.23;9.02;;;11.70;99.90;;;;;;5051932;28;20040;-70
2022/04/14 01:06:27;;;;;;;17.30;9.10;;;11.70;99.90;;;;;;5051773;28;20080;-70
2022/04/14 01:11:40;;;;;;;16.05;9.57;;;11.60;99.90;;;;;;5049764;28;20088;-71
2022/04/14 01:14:06;;;;;;;15.88;8.50;;;11.50;99.90;;;;;;5049306;28;20041;-72
2022/04/14 01:16:31;;;;;;;16.42;9.02;;;11.50;99.90;;;;;;5054964;28;20037;-71
2022/04/14 01:18:57;;;;;;;16.70;9.32;;;11.50;99.90;;;;;;5066849;28;20125;-70
2022/04/14 01:21:23;;;;;;;14.35;8.85;;;11.40;99.90;;;;;;5066525;28;20044;-70
2022/04/14 01:23:49;;;;;;;15.30;10.18;;;11.40;99.90;;;;;;5071873;28;20045;-71
2022/04/14 01:26:15;;;;;;;16.55;9.93;;;11.40;99.90;;;;;;5071694;28;20120;-70
2022/04/14 01:28:41;;;;;;;21.23;10.05;;;11.40;99.90;;;;;;5071846;28;20553;-70
2022/04/14 01:31:06;;;;;;;20.05;9.05;;;11.30;99.90;;;;;;5071601;28;20078;-71
2022/04/14 01:33:32;;;;;;;14.02;10.43;;;11.30;99.90;;;;;;5072044;28;20032;-70
2022/04/14 01:35:57;;;;;;;18.42;11.10;;;11.30;99.90;;;;;;5072341;28;20081;-70
2022/04/14 01:38:23;;;;;;;14.93;10.88;;;11.30;99.90;;;;;;5071498;28;20036;-70
2022/04/14 01:40:48;;;;;;;17.83;10.45;;;11.30;99.90;;;;;;5071088;28;20041;-70
2022/04/14 01:43:14;;;;;;;16.52;11.25;;;11.20;99.90;;;;;;5071473;28;20040;-70
2022/04/14 01:45:39;;;;;;;18.60;11.55;;;11.20;99.90;;;;;;5071591;28;20047;-70
2022/04/14 01:48:05;;;;;;;22.92;11.43;;;11.10;99.90;;;;;;5071381;28;20082;-70
2022/04/14 01:50:30;;;;;;;16.42;10.52;;;11.10;99.90;;;;;;5073413;28;20520;-70
2022/04/14 01:52:56;;;;;;;18.38;11.32;;;11.10;99.90;;;;;;5066227;28;20064;-70
2022/04/14 01:55:22;;;;;;;20.38;12.80;;;11.10;99.90;;;;;;5069706;28;20051;-70
2022/04/14 01:57:47;;;;;;;19.15;11.77;;;11.00;99.90;;;;;;5074958;28;20040;-70
2022/04/14 02:00:15;;;;;;;16.80;11.75;;;11.00;99.90;;;;;;5074508;28;20075;-72
2022/04/14 02:02:40;;;;;;;19.33;12.18;;;11.00;99.90;;;;;;5074678;28;20048;-72
2022/04/14 02:05:07;;;;;;;21.25;13.07;;;11.00;99.90;;;;;;5074514;28;20094;-72
2022/04/14 02:07:32;;;;;;;20.10;13.10;;;11.00;99.90;;;;;;5074429;28;20643;-70
2022/04/14 02:09:58;;;;;;;20.55;12.73;;;11.00;99.90;;;;;;5074152;28;20058;-70
2022/04/14 02:12:24;;;;;;;23.95;12.70;;;11.00;99.90;;;;;;5074486;28;20123;-71
2022/04/14 02:14:50;;;;;;;20.35;12.93;;;11.00;99.90;;;;;;5074590;28;20112;-70
2022/04/14 02:17:15;;;;;;;22.67;13.25;;;11.00;99.90;;;;;;5073237;28;20158;-71
2022/04/14 02:19:41;;;;;;;18.67;12.98;;;11.00;99.90;;;;;;5073041;28;20109;-71
2022/04/14 02:22:07;;;;;;;24.08;13.77;;;11.00;99.90;;;;;;5073983;28;20072;-71
2022/04/14 02:24:33;;;;;;;23.83;14.73;;;10.90;99.90;;;;;;5074137;28;20081;-70
2022/04/14 02:26:58;;;;;;;23.50;13.77;;;10.90;99.90;;;;;;5074413;28;20044;-70
2022/04/14 02:29:24;;;;;;;23.30;14.88;;;10.90;99.90;;;;;;5074200;28;20048;-70
2022/04/14 02:31:51;;;;;;;21.02;13.48;;;10.90;99.90;;;;;;5073945;28;20110;-70
2022/04/14 02:34:17;;;;;;;21.92;13.60;;;10.90;99.90;;;;;;5074113;28;20072;-70
2022/04/14 02:36:43;;;;;;;21.77;14.25;;;10.90;99.90;;;;;;5074007;28;20098;-70
2022/04/14 02:39:09;;;;;;;25.08;14.02;;;10.90;99.90;;;;;;5073837;28;20044;-70
2022/04/14 02:41:35;;;;;;;23.45;14.35;;;10.80;99.90;;;;;;5073825;28;20043;-71
2022/04/14 02:44:00;;;;;;;25.77;14.85;;;10.80;99.90;;;;;;5073809;28;20033;-70
2022/04/14 02:46:26;;;;;;;21.65;14.50;;;10.80;99.90;;;;;;5073990;28;20040;-70
2022/04/14 02:48:52;;;;;;;23.48;15.20;;;10.80;99.90;;;;;;5073780;28;20036;-70
2022/04/14 02:51:17;;;;;;;25.92;14.85;;;10.80;99.90;;;;;;5073480;28;20032;-71
2022/04/14 02:53:43;;;;;;;27.58;15.95;;;10.80;99.90;;;;;;5073463;28;20111;-70
2022/04/14 02:56:10;;;;;;;24.85;15.23;;;10.80;99.90;;;;;;5073867;28;20040;-70
2022/04/14 02:58:37;;;;;;;21.33;14.50;;;10.80;99.90;;;;;;5073670;28;20452;-71
2022/04/14 03:01:03;;;;;;;25.27;16.08;;;10.70;99.90;;;;;;5072338;28;20105;-71
2022/04/14 03:03:29;;;;;;;24.85;16.83;;;10.70;99.90;;;;;;5073522;28;20048;-70
2022/04/14 03:05:54;;;;;;;21.27;15.68;;;10.70;99.90;;;;;;5073456;28;20048;-70
2022/04/14 03:08:20;;;;;;;26.58;15.88;;;10.70;99.90;;;;;;5073227;28;20044;-70
2022/04/14 03:10:46;;;;;;;29.23;17.70;;;10.70;99.90;;;;;;5071724;28;20037;-71
2022/04/14 03:13:11;;;;;;;25.85;16.98;;;10.60;99.90;;;;;;5073098;28;20040;-70
2022/04/14 03:15:37;;;;;;;30.33;18.13;;;10.60;99.90;;;;;;5073261;28;20513;-71
2022/04/14 03:18:03;;;;;;;23.88;16.67;;;10.60;99.90;;;;;;5073228;28;20051;-70
2022/04/14 03:20:28;;;;;;;29.25;17.52;;;10.60;99.90;;;;;;5071702;28;20036;-70
2022/04/14 03:22:55;;;;;;;29.48;18.27;;;10.50;99.90;;;;;;5073045;28;20078;-70
2022/04/14 03:25:21;;;;;;;25.80;17.48;;;10.50;99.90;;;;;;5073220;28;20083;-70
2022/04/14 03:27:47;;;;;;;29.58;18.30;;;10.50;99.90;;;;;;5073114;28;20091;-70
2022/04/14 03:30:12;;;;;;;29.83;19.00;;;10.50;99.90;;;;;;5072624;28;20040;-71
2022/04/14 03:32:47;;;;;;;35.33;20.90;;;10.50;99.90;;;;;;5072896;28;20075;-70
2022/04/14 03:35:14;;;;;;;32.45;20.90;;;10.50;99.90;;;;;;5071715;28;20063;-70
2022/04/14 03:37:40;;;;;;;29.98;19.30;;;10.40;99.90;;;;;;5072836;28;20105;-70
2022/04/14 03:40:07;;;;;;;30.75;20.40;;;10.40;99.90;;;;;;5072756;28;20401;-70
2022/04/14 03:42:33;;;;;;;32.45;19.75;;;10.40;99.90;;;;;;5072917;28;20412;-70
2022/04/14 03:44:59;;;;;;;33.00;20.45;;;10.40;99.90;;;;;;5072894;28;20040;-71
2022/04/14 03:47:25;;;;;;;36.97;21.85;;;10.40;99.90;;;;;;5072716;28;20085;-71
2022/04/14 03:49:51;;;;;;;35.97;22.02;;;10.30;99.90;;;;;;5072545;28;20041;-70
2022/04/14 03:52:17;;;;;;;36.85;24.17;;;10.30;99.90;;;;;;5072497;28;20051;-70
2022/04/14 03:54:43;;;;;;;33.17;21.80;;;10.30;99.90;;;;;;5072806;28;20047;-70
2022/04/14 03:57:09;;;;;;;37.60;23.05;;;10.30;99.90;;;;;;5072557;28;20409;-70
2022/04/14 03:59:34;;;;;;;35.33;23.92;;;10.30;99.90;;;;;;5072555;28;20044;-70
2022/04/14 04:02:00;;;;;;;38.65;22.95;;;10.20;99.90;;;;;;5072071;28;20048;-70
2022/04/14 04:04:25;;;;;;;31.35;21.83;;;10.20;99.90;;;;;;5072326;28;20044;-70
2022/04/14 04:06:51;;;;;;;36.10;21.98;;;10.20;99.90;;;;;;5072477;28;20414;-71
2022/04/14 04:09:16;;;;;;;33.70;24.10;;;10.20;99.90;;;;;;5072425;28;20405;-70
2022/04/14 04:11:42;;;;;;;39.08;24.70;;;10.20;99.90;;;;;;5071965;28;20039;-70
2022/04/14 04:14:07;;;;;;;34.80;22.67;;;10.20;99.90;;;;;;5072078;28;20089;-70
2022/04/14 04:16:33;;;;;;;32.90;21.30;;;10.20;99.90;;;;;;5072297;28;20036;-70
2022/04/14 04:18:59;;;;;;;34.72;22.55;;;10.20;99.90;;;;;;5072123;28;20090;-70
2022/04/14 04:21:29;;;;;;;32.50;22.05;;;10.10;99.90;;;;;;5071959;28;20044;-70
2022/04/14 04:23:55;;;;;;;35.35;24.23;;;10.10;99.90;;;;;;5072189;28;20076;-70
2022/04/14 04:26:20;;;;;;;37.80;23.83;;;10.00;99.90;;;;;;5070752;28;20454;-70
2022/04/14 04:28:46;;;;;;;39.63;25.25;;;10.00;99.90;;;;;;5071967;28;20098;-71
2022/04/14 04:31:11;;;;;;;37.40;23.65;;;10.00;99.90;;;;;;5071685;28;20037;-70
2022/04/14 04:33:37;;;;;;;37.00;24.33;;;10.00;99.90;;;;;;5071744;28;20040;-71
2022/04/14 04:36:03;;;;;;;40.67;27.10;;;10.00;99.90;;;;;;5072171;28;20147;-70
2022/04/14 04:38:29;;;;;;;34.55;23.42;;;9.90;99.90;;;;;;5071815;28;20041;-70
2022/04/14 04:40:56;;;;;;;33.55;24.15;;;9.90;99.90;;;;;;5071542;28;20044;-70
2022/04/14 04:43:21;;;;;;;35.00;23.00;;;10.00;99.90;;;;;;5071830;28;20172;-70
2022/04/14 04:45:47;;;;;;;34.28;24.40;;;9.90;99.90;;;;;;5071773;28;20028;-70
2022/04/14 04:48:12;;;;;;;35.67;23.88;;;9.90;99.90;;;;;;5071488;28;20119;-70
2022/04/14 04:50:38;;;;;;;34.72;23.85;;;9.90;99.90;;;;;;5071491;28;20078;-70
2022/04/14 04:53:04;;;;;;;35.75;23.40;;;9.90;99.90;;;;;;5071768;28;20115;-71
2022/04/14 04:55:30;;;;;;;37.42;24.58;;;9.90;99.90;;;;;;5071627;28;20402;-72
2022/04/14 04:57:56;;;;;;;37.88;24.92;;;9.90;99.90;;;;;;5071691;28;20044;-71
2022/04/14 05:00:22;;;;;;;37.42;23.98;;;10.00;99.90;;;;;;5071334;28;20039;-71
2022/04/14 05:02:47;;;;;;;37.63;25.42;;;9.90;99.90;;;;;;5071403;28;20090;-71
2022/04/14 05:05:13;;;;;;;47.75;25.98;;;9.90;99.90;;;;;;5071793;28;20468;-71
2022/04/14 05:07:38;;;;;;;34.60;24.70;;;9.90;99.90;;;;;;5071703;28;20062;-71
2022/04/14 05:10:04;;;;;;;39.80;27.10;;;9.90;99.90;;;;;;5071143;28;20040;-70
2022/04/14 05:12:30;;;;;;;40.35;26.73;;;9.90;99.90;;;;;;5071424;28;20040;-71
2022/04/14 05:14:57;;;;;;;42.55;27.55;;;9.80;99.90;;;;;;5071524;28;20047;-71
2022/04/14 05:17:22;;;;;;;37.28;24.70;;;9.80;99.90;;;;;;5070171;28;20478;-70
2022/04/14 05:19:48;;;;;;;41.70;25.45;;;9.80;99.90;;;;;;5071584;28;20041;-70
2022/04/14 05:22:13;;;;;;;40.28;25.77;;;9.80;99.90;;;;;;5071039;28;20125;-70
2022/04/14 05:24:39;;;;;;;38.40;26.48;;;9.80;99.90;;;;;;5072665;28;20119;-70
2022/04/14 05:27:04;;;;;;;40.95;27.63;;;9.90;99.90;;;;;;5075315;28;20036;-71
2022/04/14 05:29:31;;;;;;;46.85;28.27;;;9.90;99.90;;;;;;5075182;28;20062;-71
2022/04/14 05:31:56;;;;;;;45.67;28.67;;;10.00;99.90;;;;;;5074767;28;20118;-71
2022/04/14 05:34:22;;;;;;;46.38;30.08;;;10.10;99.90;;;;;;5057321;28;20536;-71
2022/04/14 05:36:48;;;;;;;45.83;30.67;;;10.30;99.90;;;;;;5075263;28;20494;-70
2022/04/14 05:39:13;;;;;;;47.30;30.08;;;10.40;99.90;;;;;;5073854;28;20489;-71
2022/04/14 05:41:39;;;;;;;44.33;29.27;;;10.60;99.90;;;;;;5073369;28;20051;-71
2022/04/14 05:44:04;;;;;;;43.08;28.77;;;10.70;99.90;;;;;;5075040;28;20048;-71
2022/04/14 05:46:30;;;;;;;46.25;29.45;;;10.80;99.90;;;;;;5073555;28;20532;-71
2022/04/14 05:48:55;;;;;;;44.95;29.77;;;11.00;99.90;;;;;;5073780;28;20072;-72
2022/04/14 05:51:22;;;;;;;49.53;30.95;;;11.20;99.90;;;;;;5074644;28;20040;-71
2022/04/14 05:53:51;;;;;;;43.65;28.25;;;11.30;99.90;;;;;;5074873;28;20059;-71
2022/04/14 05:56:17;;;;;;;47.03;28.35;;;11.50;99.90;;;;;;5073459;28;20048;-72
2022/04/14 05:58:43;;;;;;;44.15;29.90;;;11.60;99.90;;;;;;5074682;28;20044;-71
2022/04/14 06:01:09;;;;;;;44.67;27.15;;;11.80;99.90;;;;;;5074184;28;20486;-71
2022/04/14 06:03:35;;;;;;;46.55;28.05;;;12.00;99.90;;;;;;5074774;28;20093;-71
2022/04/14 06:06:00;;;;;;;37.50;26.52;;;12.20;99.90;;;;;;5074744;28;20511;-71
2022/04/14 06:08:26;;;;;;;38.42;25.52;;;12.40;99.90;;;;;;5074492;28;20098;-71
2022/04/14 06:10:51;;;;;;;37.65;25.13;;;12.60;99.90;;;;;;5074246;28;20040;-71
2022/04/14 06:13:17;;;;;;;39.50;24.95;;;12.70;99.90;;;;;;5074187;28;20152;-71
2022/04/14 06:15:43;;;;;;;42.40;24.70;;;12.80;99.90;;;;;;5074434;28;20043;-71
2022/04/14 06:18:08;;;;;;;36.05;25.25;;;12.90;99.90;;;;;;5074475;28;20555;-71
2022/04/14 06:20:34;;;;;;;41.40;25.58;;;13.00;99.90;;;;;;5074145;28;20120;-71
2022/04/14 06:22:59;;;;;;;35.20;25.00;;;13.10;99.90;;;;;;5074214;28;20509;-71
2022/04/14 06:25:25;;;;;;;39.35;25.55;;;13.20;99.90;;;;;;5074312;28;20123;-71
2022/04/14 06:27:52;;;;;;;35.58;23.48;;;13.30;99.90;;;;;;5074121;28;20053;-71
2022/04/14 06:30:19;;;;;;;37.83;24.92;;;13.40;99.90;;;;;;5073801;28;20501;-71
2022/04/14 06:32:57;;;;;;;33.17;22.75;;;13.60;99.90;;;;;;5074182;28;20036;-71
2022/04/14 06:35:23;;;;;;;34.78;22.35;;;13.80;99.90;;;;;;5072761;28;20040;-71
2022/04/14 06:37:49;;;;;;;36.22;23.60;;;14.00;99.90;;;;;;5073889;28;20043;-71
2022/04/14 06:40:14;;;;;;;29.85;22.73;;;14.10;99.90;;;;;;5073660;28;20179;-72
2022/04/14 06:42:40;;;;;;;33.92;22.17;;;14.20;99.90;;;;;;5073701;28;20047;-71
2022/04/14 06:45:06;;;;;;;32.40;22.10;;;14.30;99.90;;;;;;5073694;28;20041;-71
2022/04/14 06:47:32;;;;;;;32.67;20.27;;;14.50;99.90;;;;;;5073668;28;20048;-72
2022/04/14 06:49:57;;;;;;;32.47;22.00;;;14.70;99.90;;;;;;5073563;28;20040;-72
2022/04/14 06:52:23;;;;;;;30.27;20.02;;;14.80;99.90;;;;;;5073619;28;20112;-71
2022/04/14 06:54:49;;;;;;;29.17;19.50;;;15.00;99.90;;;;;;5073596;28;20037;-71
2022/04/14 06:57:15;;;;;;;27.10;19.75;;;15.10;99.90;;;;;;5073620;28;20066;-71
2022/04/14 06:59:41;;;;;;;30.40;18.70;;;15.10;99.90;;;;;;5072194;28;20037;-72
2022/04/14 07:02:07;;;;;;;28.98;18.30;;;15.30;99.90;;;;;;5073026;28;20101;-72
2022/04/14 07:04:34;;;;;;;25.65;18.38;;;15.40;99.90;;;;;;5073462;28;20033;-72
2022/04/14 07:06:59;;;;;;;26.65;18.75;;;15.50;99.90;;;;;;5073455;28;20063;-72
2022/04/14 07:09:25;;;;;;;26.20;18.65;;;15.40;99.90;;;;;;5071969;28;20048;-72
2022/04/14 07:11:53;;;;;;;29.15;19.35;;;15.50;99.90;;;;;;5072833;28;20490;-71
2022/04/14 07:14:19;;;;;;;26.48;17.60;;;15.80;99.90;;;;;;5073208;28;20097;-72
2022/04/14 07:16:45;;;;;;;23.10;17.40;;;15.90;99.90;;;;;;5071788;28;20048;-72
2022/04/14 07:19:10;;;;;;;24.55;16.67;;;16.00;99.90;;;;;;5040182;28;20048;-72
2022/04/14 07:21:36;;;;;;;20.27;15.98;;;16.10;99.90;;;;;;5041533;28;20037;-72
2022/04/14 07:24:01;;;;;;;24.60;16.00;;;16.10;99.90;;;;;;5041331;28;20120;-72
2022/04/14 07:26:27;;;;;;;23.15;15.90;;;16.30;99.90;;;;;;5043161;28;20073;-72
2022/04/14 07:28:53;;;;;;;24.02;16.65;;;16.40;99.90;;;;;;5044028;28;20044;-72
2022/04/14 07:31:18;;;;;;;24.80;15.82;;;16.50;99.90;;;;;;5052768;28;20033;-71
2022/04/14 07:33:44;;;;;;;23.23;16.13;;;16.50;99.90;;;;;;5052768;28;20526;-70
2022/04/14 07:36:09;;;;;;;26.35;16.45;;;16.60;99.90;;;;;;5052826;28;20037;-71
2022/04/14 07:38:35;;;;;;;22.90;15.70;;;16.60;99.90;;;;;;5048323;28;20433;-71
2022/04/14 07:41:05;;;;;;;24.42;16.23;;;16.60;99.90;;;;;;5046082;28;20131;-71
2022/04/14 07:43:32;;;;;;;23.00;15.35;;;16.50;99.90;;;;;;5052847;28;20095;-71
2022/04/14 07:45:57;;;;;;;23.00;16.15;;;16.80;99.90;;;;;;5052526;28;20047;-71
2022/04/14 07:48:23;;;;;;;20.00;15.45;;;16.90;99.90;;;;;;5052070;28;20498;-71
2022/04/14 07:50:49;;;;;;;22.17;15.07;;;16.90;99.90;;;;;;5052022;28;20037;-72
2022/04/14 07:53:15;;;;;;;25.42;15.68;;;17.20;99.90;;;;;;5052407;28;20116;-71
2022/04/14 07:55:40;;;;;;;24.70;16.92;;;17.20;99.90;;;;;;5052338;28;20446;-71
2022/04/14 07:58:07;;;;;;;22.38;16.30;;;17.30;99.90;;;;;;5052680;28;20041;-71
2022/04/14 08:00:34;;;;;;;22.20;16.63;;;17.50;99.90;;;;;;5052252;28;20033;-71
2022/04/14 08:03:00;;;;;;;22.77;15.80;;;17.60;99.90;;;;;;5052168;28;20497;-72
2022/04/14 08:05:32;;;;;;;23.25;15.52;;;17.70;99.90;;;;;;5052333;28;20040;-72
2022/04/14 08:07:58;;;;;;;19.85;14.85;;;17.90;98.20;;;;;;5052213;28;20047;-72
2022/04/14 08:10:24;;;;;;;22.05;15.50;;;17.90;98.60;;;;;;5051846;28;20033;-72
2022/04/14 08:12:49;;;;;;;21.45;15.82;;;17.70;97.00;;;;;;5063938;22;20122;-80
2022/04/14 08:15:15;;;;;;;21.95;16.70;;;17.80;96.70;;;;;;5041869;28;20034;-80
2022/04/14 08:17:42;;;;;;;23.38;16.35;;;17.80;97.00;;;;;;5039247;28;20037;-80
2022/04/14 08:20:09;;;;;;;21.30;15.70;;;17.90;97.90;;;;;;5037478;28;20034;-78
2022/04/14 08:22:52;;;;;;;19.42;15.10;;;18.30;98.80;;;;;;5037065;28;20080;-80
2022/04/14 08:25:40;;;;;;;20.88;15.43;;;18.70;95.70;;;;;;5018913;28;20034;-79
2022/04/14 08:28:07;;;;;;;20.25;15.45;;;18.60;94.20;;;;;;5014581;28;20041;-79
2022/04/14 08:30:36;;;;;;;20.55;16.13;;;18.70;95.40;;;;;;5013103;28;20086;-78
2022/04/14 08:33:05;;;;;;;23.55;16.77;;;18.70;94.30;;;;;;5026594;28;20057;-78
2022/04/14 08:35:35;;;;;;;22.67;16.13;;;19.00;94.80;;;;;;5026765;28;20073;-79
2022/04/14 08:38:08;;;;;;;18.92;15.57;;;19.10;94.50;;;;;;5026781;28;20060;-79
2022/04/14 08:40:46;;;;;;;24.50;15.80;;;19.30;93.40;;;;;;5025366;28;20054;-79
2022/04/14 08:43:15;;;;;;;19.45;15.88;;;19.50;90.60;;;;;;5027010;28;20101;-78
2022/04/14 08:45:45;;;;;;;21.55;16.13;;;19.20;91.90;;;;;;5026154;28;20037;-78
2022/04/14 08:48:18;;;;;;;85.32;21.90;;;19.30;91.20;;;;;;5024724;28;20496;-78
2022/04/14 08:50:44;;;;;;;46.42;18.73;;;19.30;91.10;;;;;;5023482;28;20048;-78
2022/04/14 08:53:10;;;;;;;21.55;15.73;;;19.00;87.70;;;;;;5021767;28;20038;-79
2022/04/14 08:55:41;;;;;;;23.80;16.42;;;19.00;88.00;;;;;;5017566;28;20042;-80
2022/04/14 08:58:12;;;;;;;19.95;16.27;;;19.10;87.30;;;;;;5038095;28;20049;-79
2022/04/14 09:00:38;;;;;;;21.65;17.02;;;19.30;87.40;;;;;;5033844;28;20044;-80
2022/04/14 09:03:04;;;;;;;21.50;16.00;;;19.60;90.30;;;;;;5019562;28;20041;-81
2022/04/14 09:05:30;;;;;;;23.27;17.17;;;19.50;90.20;;;;;;5038637;28;20407;-81
2022/04/14 09:07:55;;;;;;;21.52;17.65;;;19.40;88.50;;;;;;5035594;28;20415;-79
2022/04/14 09:10:21;;;;;;;21.63;16.20;;;19.10;85.30;;;;;;5037645;28;20029;-79
2022/04/14 09:12:51;;;;;;;21.50;15.75;;;19.10;85.80;;;;;;5037662;28;20040;-79
2022/04/14 09:15:17;;;;;;;21.88;17.42;;;19.10;84.40;;;;;;5040926;28;20049;-80
2022/04/14 09:17:42;;;;;;;21.92;16.40;;;19.00;84.60;;;;;;5050820;28;20038;-81
2022/04/14 09:20:37;;;;;;;20.38;16.50;;;19.10;85.20;;;;;;5045365;28;20030;-79
2022/04/14 09:23:20;;;;;;;24.13;17.13;;;19.20;84.90;;;;;;5031455;28;20034;-79
2022/04/14 09:26:06;;;;;;;21.73;15.40;;;18.90;80.80;;;;;;5036298;28;20486;-79
2022/04/14 09:28:32;;;;;;;21.50;15.65;;;18.80;82.60;;;;;;5038657;28;20049;-79
2022/04/14 09:31:11;;;;;;;20.75;15.18;;;18.80;84.90;;;;;;5048658;28;20064;-81
2022/04/14 09:33:48;;;;;;;21.58;15.52;;;18.50;80.70;;;;;;5022540;28;20057;-81
2022/04/14 09:36:18;;;;;;;16.13;12.20;;;18.40;81.30;;;;;;5059627;28;20056;-80
2022/04/14 09:38:53;;;;;;;16.75;12.20;;;18.30;83.00;;;;;;5028171;28;20045;-80
2022/04/14 09:41:34;;;;;;;13.68;11.20;;;18.30;83.20;;;;;;5046316;28;20048;-81
2022/04/14 09:44:03;;;;;;;14.35;10.98;;;18.10;81.70;;;;;;5023334;28;20041;-80
2022/04/14 09:46:29;;;;;;;17.48;13.15;;;18.20;85.20;;;;;;5023309;28;20466;-80
2022/04/14 09:49:09;;;;;;;13.95;11.90;;;18.40;87.80;;;;;;5009724;28;20042;-81
2022/04/14 09:51:40;;;;;;;18.58;10.75;;;18.40;86.00;;;;;;5006717;28;20052;-79
2022/04/14 09:54:19;;;;;;;17.10;11.52;;;17.90;82.50;;;;;;5022561;28;20041;-81
2022/04/14 09:56:52;;;;;;;15.98;9.20;;;17.80;84.00;;;;;;5010302;28;20037;-80
2022/04/14 09:59:20;;;;;;;11.23;7.72;;;17.70;85.50;;;;;;5009086;28;20038;-81
2022/04/14 10:01:47;;;;;;;10.57;7.57;;;17.70;82.80;;;;;;5025168;28;20478;-83
2022/04/14 10:04:29;;;;;;;12.02;7.68;;;17.50;81.00;;;;;;5023686;28;20052;-81
2022/04/14 10:07:14;;;;;;;11.98;8.27;;;17.50;80.80;;;;;;5032908;28;20056;-81
2022/04/14 10:09:42;;;;;;;11.38;7.43;;;17.70;84.30;;;;;;5040203;28;20041;-79
2022/04/14 10:12:20;;;;;;;9.93;7.13;;;17.80;81.40;;;;;;5044245;28;20041;-80
2022/04/14 10:14:59;;;;;;;12.63;7.43;;;17.90;81.90;;;;;;5044618;28;20048;-80
2022/04/14 10:17:25;;;;;;;10.35;7.28;;;17.60;80.70;;;;;;5045653;28;20041;-81
2022/04/14 10:19:51;;;;;;;11.15;7.32;;;17.20;81.60;;;;;;5042766;28;20555;-78
2022/04/14 10:22:18;;;;;;;12.48;6.88;;;17.30;83.20;;;;;;5038663;28;20081;-81
2022/04/14 10:24:45;;;;;;;9.70;7.13;;;17.40;86.30;;;;;;5022087;28;20042;-81
2022/04/14 10:27:11;;;;;;;10.55;7.72;;;17.30;87.30;;;;;;5023848;28;20054;-82
2022/04/14 10:29:39;;;;;;;11.13;8.30;;;17.10;87.40;;;;;;5025881;28;20514;-80
2022/04/14 10:32:06;;;;;;;12.23;8.35;;;17.20;90.50;;;;;;5027417;28;20045;-80
2022/04/14 10:34:33;;;;;;;9.18;6.03;;;17.10;90.00;;;;;;5025815;28;20034;-80
2022/04/14 10:37:01;;;;;;;10.18;6.47;;;17.20;89.10;;;;;;5027970;28;20034;-81
2022/04/14 10:39:29;;;;;;;9.73;6.32;;;17.30;85.90;;;;;;5030363;28;20104;-80
2022/04/14 10:41:55;;;;;;;10.43;6.55;;;17.50;86.90;;;;;;5030100;28;20046;-81
2022/04/14 10:44:22;;;;;;;10.02;6.50;;;17.40;85.20;;;;;;5029042;28;20064;-80
2022/04/14 10:46:50;;;;;;;9.45;7.13;;;17.40;84.50;;;;;;5028268;28;20054;-80
2022/04/14 10:49:25;;;;;;;11.88;6.53;;;17.50;84.20;;;;;;5028190;28;20054;-80
2022/04/14 10:51:57;;;;;;;7.35;5.50;;;17.60;85.50;;;;;;5027051;28;20048;-80
2022/04/14 10:54:22;;;;;;;8.32;5.53;;;17.70;84.40;;;;;;5009805;28;20073;-80
2022/04/14 10:56:50;;;;;;;7.25;5.15;;;17.70;82.30;;;;;;5027203;28;20109;-80
2022/04/14 10:59:31;;;;;;;8.23;6.20;;;17.80;81.40;;;;;;5009710;28;20124;-80
2022/04/14 11:02:02;;;;;;;10.70;6.57;;;17.60;79.90;;;;;;5009157;28;20042;-82
2022/04/14 11:04:50;;;;;;;7.68;5.78;;;17.60;82.30;;;;;;5009366;28;20121;-81
2022/04/14 11:07:23;;;;;;;12.80;7.10;;;17.80;84.60;;;;;;5023570;28;20064;-79
2022/04/14 11:09:50;;;;;;;11.68;6.80;;;17.70;84.70;;;;;;5022634;28;20522;-80
2022/04/14 11:12:19;;;;;;;10.30;7.05;;;17.50;87.00;;;;;;5004586;28;20117;-79
2022/04/14 11:15:02;;;;;;;8.35;5.57;;;17.40;89.20;;;;;;5022723;28;20041;-80
2022/04/14 11:17:33;;;;;;;8.95;4.10;;;17.30;86.40;;;;;;5020849;28;20092;-80
2022/04/14 11:20:18;;;;;;;7.93;4.60;;;17.10;85.50;;;;;;5022103;28;20046;-82
2022/04/14 11:23:06;;;;;;;7.32;4.32;;;17.30;85.90;;;;;;5020253;28;20072;-81
2022/04/14 11:25:48;;;;;;;6.85;4.25;;;17.60;87.50;;;;;;5004724;28;20080;-81
2022/04/14 11:28:26;;;;;;;5.75;3.90;;;17.60;84.10;;;;;;5005904;28;20046;-80
2022/04/14 11:30:57;;;;;;;5.75;4.07;;;17.40;83.30;;;;;;5025378;28;20041;-79
2022/04/14 11:33:32;;;;;;;4.88;3.50;;;17.50;83.80;;;;;;5007303;28;20044;-81
2022/04/14 11:36:14;;;;;;;7.45;4.22;;;17.50;83.10;;;;;;5009784;28;20038;-81
2022/04/14 11:39:03;;;;;;;5.72;3.83;;;17.70;83.20;;;;;;5024501;28;20041;-81
2022/04/14 11:41:40;;;;;;;6.07;3.03;;;17.70;81.10;;;;;;5008516;28;20042;-80
2022/04/14 11:44:12;;;;;;;8.00;3.28;;;17.80;80.30;;;;;;5023138;28;20239;-81
2022/04/14 11:46:39;;;;;;;7.20;3.28;;;17.80;79.20;;;;;;5034392;28;20037;-81
2022/04/14 11:49:07;;;;;;;5.53;2.83;;;18.00;80.40;;;;;;5017034;28;20038;-81
2022/04/14 11:51:32;;;;;;;6.15;3.22;;;17.90;79.20;;;;;;5032909;28;20062;-81
2022/04/14 11:53:58;;;;;;;7.75;4.05;;;17.90;77.30;;;;;;5023227;28;20092;-82
2022/04/14 11:56:25;;;;;;;8.68;3.67;;;17.70;78.20;;;;;;5022760;28;20033;-81
2022/04/14 11:58:52;;;;;;;6.82;4.10;;;17.80;79.80;;;;;;5024846;28;20049;-81
2022/04/14 12:01:18;;;;;;;4.25;3.03;;;17.80;79.20;;;;;;5022335;28;20086;-80
2022/04/14 12:03:46;;;;;;;7.35;2.75;;;17.80;77.50;;;;;;5022237;28;20125;-80
2022/04/14 12:06:16;;;;;;;6.20;2.47;;;17.80;76.90;;;;;;5014984;28;20034;-80
2022/04/14 12:08:51;;;;;;;7.20;3.55;;;17.80;74.20;;;;;;5032045;28;20045;-80
2022/04/14 12:11:20;;;;;;;6.57;2.75;;;17.80;72.90;;;;;;5035750;28;20046;-79
2022/04/14 12:13:46;;;;;;;7.13;2.78;;;17.90;76.80;;;;;;5019557;28;20125;-77
2022/04/14 12:16:12;;;;;;;5.43;2.97;;;17.80;71.60;;;;;;5033540;28;20048;-79
2022/04/14 12:18:47;;;;;;;4.22;2.20;;;17.80;72.00;;;;;;5016130;28;20049;-79
2022/04/14 12:21:24;;;;;;;7.30;2.65;;;17.80;73.00;;;;;;5038780;28;20091;-81
2022/04/14 12:23:52;;;;;;;8.40;3.05;;;17.70;73.80;;;;;;5039738;28;20071;-80
2022/04/14 12:26:18;;;;;;;6.38;2.63;;;17.80;74.20;;;;;;5022846;28;20052;-80
2022/04/14 12:28:45;;;;;;;4.28;2.63;;;17.70;73.80;;;;;;5045088;28;20731;-81
2022/04/14 12:31:12;;;;;;;3.92;1.75;;;17.70;73.10;;;;;;5041738;28;20041;-82
2022/04/14 12:33:38;;;;;;;4.88;1.95;;;17.70;70.70;;;;;;5046369;28;20124;-81
2022/04/14 12:36:10;;;;;;;7.57;3.22;;;17.70;72.30;;;;;;5047450;28;20061;-82
2022/04/14 12:38:44;;;;;;;4.25;3.05;;;17.80;75.50;;;;;;5046047;28;20503;-80